sensor_id;sensor_type;location;lat;lon;timestamp;P1;durP1;ratioP1;P2;durP2;ratioP2
1975;SDS011;988;48.016;7.800;2023-06-01T00:02:05;17.77;;;16.43;;
1975;SDS011;988;48.016;7.800;2023-06-01T00:04:31;17.57;;;16.50;;
1975;SDS011;988;48.016;7.800;2023-06-01T00:06:57;18.50;;;17.47;;
1975;SDS011;988;48.016;7.800;2023-06-01T00:09:26;17.93;;;16.90;;
1975;SDS011;988;48.016;7.800;2023-06-01T00:11:52;17.73;;;16.73;;
1975;SDS011;988;48.016;7.800;2023-06-01T00:14:17;18.70;;;17.50;;
1975;SDS011;988;48.016;7.800;2023-06-01T00:16:43;18.33;;;17.30;;
1975;SDS011;988;48.016;7.800;2023-06-01T00:19:10;17.30;;;16.40;;
1975;SDS011;988;48.016;7.800;2023-06-01T00:21:36;17.83;;;16.73;;
1975;SDS011;988;48.016;7.800;2023-06-01T00:24:02;19.27;;;17.53;;
1975;SDS011;988;48.016;7.800;2023-06-01T00:26:28;18.33;;;17.23;;
1975;SDS011;988;48.016;7.800;2023-06-01T00:28:56;18.77;;;17.37;;
1975;SDS011;988;48.016;7.800;2023-06-01T00:31:22;17.87;;;16.67;;
1975;SDS011;988;48.016;7.800;2023-06-01T00:33:49;19.67;;;18.27;;
1975;SDS011;988;48.016;7.800;2023-06-01T00:36:15;18.30;;;17.27;;
1975;SDS011;988;48.016;7.800;2023-06-01T00:38:41;17.30;;;16.30;;
1975;SDS011;988;48.016;7.800;2023-06-01T00:41:06;18.90;;;17.70;;
1975;SDS011;988;48.016;7.800;2023-06-01T00:43:32;18.60;;;17.40;;
1975;SDS011;988;48.016;7.800;2023-06-01T00:45:58;17.10;;;16.13;;
1975;SDS011;988;48.016;7.800;2023-06-01T00:48:24;18.88;;;17.48;;
1975;SDS011;988;48.016;7.800;2023-06-01T00:50:50;19.07;;;17.90;;
1975;SDS011;988;48.016;7.800;2023-06-01T00:53:17;16.97;;;15.87;;
1975;SDS011;988;48.016;7.800;2023-06-01T00:55:44;17.98;;;16.50;;
1975;SDS011;988;48.016;7.800;2023-06-01T00:58:11;17.33;;;16.23;;
1975;SDS011;988;48.016;7.800;2023-06-01T01:00:37;17.25;;;16.17;;
1975;SDS011;988;48.016;7.800;2023-06-01T01:03:04;16.08;;;15.07;;
1975;SDS011;988;48.016;7.800;2023-06-01T01:05:32;16.00;;;14.90;;
1975;SDS011;988;48.016;7.800;2023-06-01T01:10:51;16.70;;;15.53;;
1975;SDS011;988;48.016;7.800;2023-06-01T01:16:18;15.43;;;14.18;;
1975;SDS011;988;48.016;7.800;2023-06-01T01:22:02;15.73;;;14.70;;
1975;SDS011;988;48.016;7.800;2023-06-01T01:27:55;15.35;;;14.45;;
1975;SDS011;988;48.016;7.800;2023-06-01T01:30:23;16.20;;;15.07;;
1975;SDS011;988;48.016;7.800;2023-06-01T01:32:52;16.58;;;15.40;;
1975;SDS011;988;48.016;7.800;2023-06-01T01:35:20;17.52;;;16.48;;
1975;SDS011;988;48.016;7.800;2023-06-01T01:37:51;14.82;;;13.93;;
1975;SDS011;988;48.016;7.800;2023-06-01T01:40:18;16.50;;;15.40;;
1975;SDS011;988;48.016;7.800;2023-06-01T01:42:44;15.77;;;14.75;;
1975;SDS011;988;48.016;7.800;2023-06-01T01:45:10;15.43;;;14.45;;
1975;SDS011;988;48.016;7.800;2023-06-01T01:47:41;14.75;;;13.85;;
1975;SDS011;988;48.016;7.800;2023-06-01T01:50:13;15.45;;;14.25;;
1975;SDS011;988;48.016;7.800;2023-06-01T01:52:43;15.18;;;14.18;;
1975;SDS011;988;48.016;7.800;2023-06-01T01:55:10;15.60;;;14.50;;
1975;SDS011;988;48.016;7.800;2023-06-01T01:57:37;14.80;;;13.80;;
1975;SDS011;988;48.016;7.800;2023-06-01T02:00:04;13.85;;;13.02;;
1975;SDS011;988;48.016;7.800;2023-06-01T02:02:31;15.20;;;14.20;;
1975;SDS011;988;48.016;7.800;2023-06-01T02:04:57;14.10;;;13.10;;
1975;SDS011;988;48.016;7.800;2023-06-01T02:07:22;12.47;;;11.60;;
1975;SDS011;988;48.016;7.800;2023-06-01T02:09:48;12.90;;;12.17;;
1975;SDS011;988;48.016;7.800;2023-06-01T02:12:13;13.80;;;12.80;;
1975;SDS011;988;48.016;7.800;2023-06-01T02:14:39;13.87;;;12.60;;
1975;SDS011;988;48.016;7.800;2023-06-01T02:17:05;13.53;;;12.63;;
1975;SDS011;988;48.016;7.800;2023-06-01T02:19:32;13.57;;;12.68;;
1975;SDS011;988;48.016;7.800;2023-06-01T02:21:58;14.80;;;12.83;;
1975;SDS011;988;48.016;7.800;2023-06-01T02:24:23;13.07;;;12.17;;
1975;SDS011;988;48.016;7.800;2023-06-01T02:26:49;12.50;;;11.70;;
1975;SDS011;988;48.016;7.800;2023-06-01T02:29:18;13.00;;;11.90;;
1975;SDS011;988;48.016;7.800;2023-06-01T02:31:47;12.70;;;11.85;;
1975;SDS011;988;48.016;7.800;2023-06-01T02:34:13;11.48;;;10.23;;
1975;SDS011;988;48.016;7.800;2023-06-01T02:36:38;12.00;;;11.27;;
1975;SDS011;988;48.016;7.800;2023-06-01T02:39:04;13.57;;;12.60;;
1975;SDS011;988;48.016;7.800;2023-06-01T02:41:29;12.33;;;11.60;;
1975;SDS011;988;48.016;7.800;2023-06-01T02:43:55;12.43;;;11.50;;
1975;SDS011;988;48.016;7.800;2023-06-01T02:46:20;11.77;;;11.00;;
1975;SDS011;988;48.016;7.800;2023-06-01T02:48:46;11.87;;;11.07;;
1975;SDS011;988;48.016;7.800;2023-06-01T02:51:12;11.53;;;10.63;;
1975;SDS011;988;48.016;7.800;2023-06-01T02:53:41;13.40;;;12.40;;
1975;SDS011;988;48.016;7.800;2023-06-01T02:56:07;12.27;;;11.30;;
1975;SDS011;988;48.016;7.800;2023-06-01T02:58:33;11.07;;;10.27;;
1975;SDS011;988;48.016;7.800;2023-06-01T03:00:59;11.97;;;11.10;;
1975;SDS011;988;48.016;7.800;2023-06-01T03:03:25;11.38;;;10.48;;
1975;SDS011;988;48.016;7.800;2023-06-01T03:05:51;11.13;;;10.32;;
1975;SDS011;988;48.016;7.800;2023-06-01T03:08:17;12.23;;;11.32;;
1975;SDS011;988;48.016;7.800;2023-06-01T03:10:44;13.00;;;12.00;;
1975;SDS011;988;48.016;7.800;2023-06-01T03:13:10;11.07;;;10.38;;
1975;SDS011;988;48.016;7.800;2023-06-01T03:15:35;11.83;;;11.03;;
1975;SDS011;988;48.016;7.800;2023-06-01T03:18:02;11.23;;;10.40;;
1975;SDS011;988;48.016;7.800;2023-06-01T03:20:32;11.43;;;10.63;;
1975;SDS011;988;48.016;7.800;2023-06-01T03:22:57;12.75;;;11.63;;
1975;SDS011;988;48.016;7.800;2023-06-01T03:25:23;11.67;;;10.87;;
1975;SDS011;988;48.016;7.800;2023-06-01T03:27:50;12.13;;;11.07;;
1975;SDS011;988;48.016;7.800;2023-06-01T03:30:16;11.45;;;10.55;;
1975;SDS011;988;48.016;7.800;2023-06-01T03:32:42;11.10;;;10.20;;
1975;SDS011;988;48.016;7.800;2023-06-01T03:35:09;12.55;;;11.55;;
1975;SDS011;988;48.016;7.800;2023-06-01T03:37:36;12.55;;;11.38;;
1975;SDS011;988;48.016;7.800;2023-06-01T03:40:03;11.23;;;10.43;;
1975;SDS011;988;48.016;7.800;2023-06-01T03:42:39;11.30;;;10.30;;
1975;SDS011;988;48.016;7.800;2023-06-01T03:45:06;10.27;;;9.48;;
1975;SDS011;988;48.016;7.800;2023-06-01T03:47:32;12.70;;;11.63;;
1975;SDS011;988;48.016;7.800;2023-06-01T03:50:01;11.75;;;10.85;;
1975;SDS011;988;48.016;7.800;2023-06-01T03:52:28;11.60;;;10.07;;
1975;SDS011;988;48.016;7.800;2023-06-01T03:54:55;12.52;;;10.77;;
1975;SDS011;988;48.016;7.800;2023-06-01T03:57:21;12.18;;;10.90;;
1975;SDS011;988;48.016;7.800;2023-06-01T03:59:47;12.63;;;11.50;;
1975;SDS011;988;48.016;7.800;2023-06-01T04:02:13;10.80;;;10.07;;
1975;SDS011;988;48.016;7.800;2023-06-01T04:04:39;11.73;;;10.93;;
1975;SDS011;988;48.016;7.800;2023-06-01T04:07:10;12.20;;;11.23;;
1975;SDS011;988;48.016;7.800;2023-06-01T04:09:39;12.98;;;11.70;;
1975;SDS011;988;48.016;7.800;2023-06-01T04:12:08;11.50;;;10.70;;
1975;SDS011;988;48.016;7.800;2023-06-01T04:14:34;10.65;;;9.88;;
1975;SDS011;988;48.016;7.800;2023-06-01T04:17:00;11.65;;;10.48;;
1975;SDS011;988;48.016;7.800;2023-06-01T04:19:26;12.33;;;11.23;;
1975;SDS011;988;48.016;7.800;2023-06-01T04:21:51;11.50;;;10.70;;
1975;SDS011;988;48.016;7.800;2023-06-01T04:24:18;12.83;;;11.63;;
1975;SDS011;988;48.016;7.800;2023-06-01T04:26:44;12.93;;;11.77;;
1975;SDS011;988;48.016;7.800;2023-06-01T04:29:10;14.03;;;12.83;;
1975;SDS011;988;48.016;7.800;2023-06-01T04:31:40;14.45;;;13.35;;
1975;SDS011;988;48.016;7.800;2023-06-01T04:34:06;17.33;;;15.93;;
1975;SDS011;988;48.016;7.800;2023-06-01T04:36:34;13.80;;;12.60;;
1975;SDS011;988;48.016;7.800;2023-06-01T04:39:04;15.95;;;14.55;;
1975;SDS011;988;48.016;7.800;2023-06-01T04:41:31;15.13;;;14.07;;
1975;SDS011;988;48.016;7.800;2023-06-01T04:44:00;15.00;;;13.70;;
1975;SDS011;988;48.016;7.800;2023-06-01T04:46:30;14.65;;;13.65;;
1975;SDS011;988;48.016;7.800;2023-06-01T04:48:56;14.37;;;13.27;;
1975;SDS011;988;48.016;7.800;2023-06-01T04:51:23;16.35;;;15.25;;
1975;SDS011;988;48.016;7.800;2023-06-01T04:53:50;16.42;;;15.23;;
1975;SDS011;988;48.016;7.800;2023-06-01T04:56:17;15.93;;;14.68;;
1975;SDS011;988;48.016;7.800;2023-06-01T04:58:44;18.17;;;16.52;;
1975;SDS011;988;48.016;7.800;2023-06-01T05:01:12;21.90;;;19.92;;
1975;SDS011;988;48.016;7.800;2023-06-01T05:03:41;20.02;;;18.60;;
1975;SDS011;988;48.016;7.800;2023-06-01T05:06:08;16.80;;;15.70;;
1975;SDS011;988;48.016;7.800;2023-06-01T05:08:35;16.98;;;15.75;;
1975;SDS011;988;48.016;7.800;2023-06-01T05:11:01;18.33;;;17.03;;
1975;SDS011;988;48.016;7.800;2023-06-01T05:13:27;17.13;;;15.97;;
1975;SDS011;988;48.016;7.800;2023-06-01T05:15:53;16.00;;;14.87;;
1975;SDS011;988;48.016;7.800;2023-06-01T05:18:18;18.30;;;16.80;;
1975;SDS011;988;48.016;7.800;2023-06-01T05:20:44;17.67;;;16.37;;
1975;SDS011;988;48.016;7.800;2023-06-01T05:23:10;18.33;;;17.33;;
1975;SDS011;988;48.016;7.800;2023-06-01T05:25:36;19.53;;;17.87;;
1975;SDS011;988;48.016;7.800;2023-06-01T05:28:01;19.07;;;17.43;;
1975;SDS011;988;48.016;7.800;2023-06-01T05:30:27;18.60;;;17.40;;
1975;SDS011;988;48.016;7.800;2023-06-01T05:32:53;19.87;;;18.47;;
1975;SDS011;988;48.016;7.800;2023-06-01T05:35:18;20.20;;;18.10;;
1975;SDS011;988;48.016;7.800;2023-06-01T05:37:45;19.53;;;17.90;;
1975;SDS011;988;48.016;7.800;2023-06-01T05:40:10;20.30;;;18.80;;
1975;SDS011;988;48.016;7.800;2023-06-01T05:42:36;21.00;;;19.70;;
1975;SDS011;988;48.016;7.800;2023-06-01T05:45:02;20.87;;;19.37;;
1975;SDS011;988;48.016;7.800;2023-06-01T05:47:28;19.27;;;18.17;;
1975;SDS011;988;48.016;7.800;2023-06-01T05:49:53;20.63;;;19.03;;
1975;SDS011;988;48.016;7.800;2023-06-01T05:52:19;21.43;;;19.80;;
1975;SDS011;988;48.016;7.800;2023-06-01T05:54:45;20.97;;;19.20;;
1975;SDS011;988;48.016;7.800;2023-06-01T05:57:10;21.00;;;18.90;;
1975;SDS011;988;48.016;7.800;2023-06-01T05:59:36;21.07;;;19.47;;
1975;SDS011;988;48.016;7.800;2023-06-01T06:02:02;19.87;;;18.57;;
1975;SDS011;988;48.016;7.800;2023-06-01T06:04:28;18.97;;;17.87;;
1975;SDS011;988;48.016;7.800;2023-06-01T06:06:53;20.40;;;18.90;;
1975;SDS011;988;48.016;7.800;2023-06-01T06:09:19;20.50;;;19.10;;
1975;SDS011;988;48.016;7.800;2023-06-01T06:11:45;19.27;;;17.93;;
1975;SDS011;988;48.016;7.800;2023-06-01T06:14:10;20.17;;;18.97;;
1975;SDS011;988;48.016;7.800;2023-06-01T06:16:36;20.33;;;18.40;;
1975;SDS011;988;48.016;7.800;2023-06-01T06:19:02;22.27;;;20.43;;
1975;SDS011;988;48.016;7.800;2023-06-01T06:21:27;20.90;;;19.00;;
1975;SDS011;988;48.016;7.800;2023-06-01T06:23:53;21.57;;;20.20;;
1975;SDS011;988;48.016;7.800;2023-06-01T06:26:23;19.33;;;18.20;;
1975;SDS011;988;48.016;7.800;2023-06-01T06:28:52;19.57;;;18.07;;
1975;SDS011;988;48.016;7.800;2023-06-01T06:31:20;19.83;;;18.57;;
1975;SDS011;988;48.016;7.800;2023-06-01T06:33:46;21.33;;;19.83;;
1975;SDS011;988;48.016;7.800;2023-06-01T06:36:12;20.23;;;18.77;;
1975;SDS011;988;48.016;7.800;2023-06-01T06:38:37;19.50;;;17.23;;
1975;SDS011;988;48.016;7.800;2023-06-01T06:41:03;18.50;;;17.23;;
1975;SDS011;988;48.016;7.800;2023-06-01T06:43:29;19.37;;;17.87;;
1975;SDS011;988;48.016;7.800;2023-06-01T06:45:54;18.17;;;16.90;;
1975;SDS011;988;48.016;7.800;2023-06-01T06:48:20;20.00;;;18.47;;
1975;SDS011;988;48.016;7.800;2023-06-01T06:50:45;18.27;;;17.10;;
1975;SDS011;988;48.016;7.800;2023-06-01T06:53:11;18.90;;;17.23;;
1975;SDS011;988;48.016;7.800;2023-06-01T06:55:37;19.57;;;18.17;;
1975;SDS011;988;48.016;7.800;2023-06-01T06:58:02;19.53;;;18.23;;
1975;SDS011;988;48.016;7.800;2023-06-01T07:00:28;19.60;;;18.50;;
1975;SDS011;988;48.016;7.800;2023-06-01T07:02:54;19.30;;;18.20;;
1975;SDS011;988;48.016;7.800;2023-06-01T07:05:20;18.93;;;17.70;;
1975;SDS011;988;48.016;7.800;2023-06-01T07:07:46;20.27;;;18.20;;
1975;SDS011;988;48.016;7.800;2023-06-01T07:10:11;18.80;;;17.70;;
1975;SDS011;988;48.016;7.800;2023-06-01T07:12:37;19.70;;;18.50;;
1975;SDS011;988;48.016;7.800;2023-06-01T07:15:03;19.67;;;18.27;;
1975;SDS011;988;48.016;7.800;2023-06-01T07:17:30;20.10;;;18.90;;
1975;SDS011;988;48.016;7.800;2023-06-01T07:19:56;19.63;;;18.43;;
1975;SDS011;988;48.016;7.800;2023-06-01T07:22:21;19.70;;;18.60;;
1975;SDS011;988;48.016;7.800;2023-06-01T07:24:47;22.37;;;20.67;;
1975;SDS011;988;48.016;7.800;2023-06-01T07:27:13;24.23;;;22.67;;
1975;SDS011;988;48.016;7.800;2023-06-01T07:29:42;21.17;;;19.70;;
1975;SDS011;988;48.016;7.800;2023-06-01T07:32:09;20.93;;;19.50;;
1975;SDS011;988;48.016;7.800;2023-06-01T07:34:35;22.10;;;20.13;;
1975;SDS011;988;48.016;7.800;2023-06-01T07:37:00;22.23;;;20.53;;
1975;SDS011;988;48.016;7.800;2023-06-01T07:39:26;20.57;;;19.30;;
1975;SDS011;988;48.016;7.800;2023-06-01T07:41:52;20.40;;;19.00;;
1975;SDS011;988;48.016;7.800;2023-06-01T07:44:18;20.93;;;19.57;;
1975;SDS011;988;48.016;7.800;2023-06-01T07:46:45;20.80;;;19.40;;
1975;SDS011;988;48.016;7.800;2023-06-01T07:49:11;20.60;;;19.40;;
1975;SDS011;988;48.016;7.800;2023-06-01T07:51:39;24.43;;;22.50;;
1975;SDS011;988;48.016;7.800;2023-06-01T07:54:05;24.43;;;22.50;;
1975;SDS011;988;48.016;7.800;2023-06-01T07:56:31;22.53;;;21.13;;
1975;SDS011;988;48.016;7.800;2023-06-01T07:58:57;23.70;;;21.93;;
1975;SDS011;988;48.016;7.800;2023-06-01T08:01:23;23.30;;;21.90;;
1975;SDS011;988;48.016;7.800;2023-06-01T08:03:48;26.43;;;24.80;;
1975;SDS011;988;48.016;7.800;2023-06-01T08:06:15;26.33;;;24.53;;
1975;SDS011;988;48.016;7.800;2023-06-01T08:08:40;24.37;;;22.87;;
1975;SDS011;988;48.016;7.800;2023-06-01T08:11:07;24.50;;;22.90;;
1975;SDS011;988;48.016;7.800;2023-06-01T08:13:33;24.20;;;22.60;;
1975;SDS011;988;48.016;7.800;2023-06-01T08:16:01;24.83;;;23.13;;
1975;SDS011;988;48.016;7.800;2023-06-01T08:18:27;24.50;;;22.90;;
1975;SDS011;988;48.016;7.800;2023-06-01T08:20:54;23.27;;;21.87;;
1975;SDS011;988;48.016;7.800;2023-06-01T08:23:20;24.50;;;22.67;;
1975;SDS011;988;48.016;7.800;2023-06-01T08:25:47;25.27;;;23.67;;
1975;SDS011;988;48.016;7.800;2023-06-01T08:28:13;25.00;;;23.50;;
1975;SDS011;988;48.016;7.800;2023-06-01T08:30:39;24.70;;;23.20;;
1975;SDS011;988;48.016;7.800;2023-06-01T08:33:05;25.70;;;24.20;;
1975;SDS011;988;48.016;7.800;2023-06-01T08:35:31;25.07;;;23.67;;
1975;SDS011;988;48.016;7.800;2023-06-01T08:37:59;26.00;;;24.30;;
1975;SDS011;988;48.016;7.800;2023-06-01T08:40:28;25.40;;;23.90;;
1975;SDS011;988;48.016;7.800;2023-06-01T08:45:42;24.07;;;22.13;;
1975;SDS011;988;48.016;7.800;2023-06-01T08:48:09;24.43;;;22.53;;
1975;SDS011;988;48.016;7.800;2023-06-01T08:50:45;22.77;;;21.37;;
1975;SDS011;988;48.016;7.800;2023-06-01T08:53:16;22.53;;;21.13;;
1975;SDS011;988;48.016;7.800;2023-06-01T08:55:44;22.50;;;21.20;;
1975;SDS011;988;48.016;7.800;2023-06-01T08:58:11;22.70;;;21.20;;
1975;SDS011;988;48.016;7.800;2023-06-01T09:00:38;23.00;;;21.50;;
1975;SDS011;988;48.016;7.800;2023-06-01T09:03:03;24.10;;;22.70;;
1975;SDS011;988;48.016;7.800;2023-06-01T09:05:29;23.77;;;22.10;;
1975;SDS011;988;48.016;7.800;2023-06-01T09:07:55;23.73;;;22.30;;
1975;SDS011;988;48.016;7.800;2023-06-01T09:10:23;22.80;;;21.10;;
1975;SDS011;988;48.016;7.800;2023-06-01T09:12:53;23.50;;;22.07;;
1975;SDS011;988;48.016;7.800;2023-06-01T09:15:20;25.93;;;23.63;;
1975;SDS011;988;48.016;7.800;2023-06-01T09:17:47;24.13;;;22.73;;
1975;SDS011;988;48.016;7.800;2023-06-01T09:20:24;24.07;;;22.43;;
1975;SDS011;988;48.016;7.800;2023-06-01T09:22:52;23.60;;;22.20;;
1975;SDS011;988;48.016;7.800;2023-06-01T09:25:23;23.97;;;22.60;;
1975;SDS011;988;48.016;7.800;2023-06-01T09:27:52;23.80;;;22.40;;
1975;SDS011;988;48.016;7.800;2023-06-01T09:30:20;24.80;;;22.70;;
1975;SDS011;988;48.016;7.800;2023-06-01T09:32:47;24.70;;;23.00;;
1975;SDS011;988;48.016;7.800;2023-06-01T09:35:16;24.80;;;23.00;;
1975;SDS011;988;48.016;7.800;2023-06-01T09:38:01;23.73;;;22.07;;
1975;SDS011;988;48.016;7.800;2023-06-01T09:40:31;23.80;;;22.40;;
1975;SDS011;988;48.016;7.800;2023-06-01T09:42:57;24.27;;;22.87;;
1975;SDS011;988;48.016;7.800;2023-06-01T09:45:22;24.30;;;22.47;;
1975;SDS011;988;48.016;7.800;2023-06-01T09:47:49;23.60;;;22.30;;
1975;SDS011;988;48.016;7.800;2023-06-01T09:50:32;23.83;;;22.53;;
1975;SDS011;988;48.016;7.800;2023-06-01T09:53:03;24.30;;;22.80;;
1975;SDS011;988;48.016;7.800;2023-06-01T09:55:29;23.93;;;22.53;;
1975;SDS011;988;48.016;7.800;2023-06-01T09:58:16;24.17;;;22.67;;
1975;SDS011;988;48.016;7.800;2023-06-01T10:00:48;25.20;;;23.40;;
1975;SDS011;988;48.016;7.800;2023-06-01T10:03:15;24.77;;;23.07;;
1975;SDS011;988;48.016;7.800;2023-06-01T10:05:42;22.73;;;21.33;;
1975;SDS011;988;48.016;7.800;2023-06-01T10:08:10;24.30;;;22.70;;
1975;SDS011;988;48.016;7.800;2023-06-01T10:10:37;25.10;;;23.60;;
1975;SDS011;988;48.016;7.800;2023-06-01T10:13:04;23.73;;;22.27;;
1975;SDS011;988;48.016;7.800;2023-06-01T10:15:30;25.03;;;23.00;;
1975;SDS011;988;48.016;7.800;2023-06-01T10:17:55;24.10;;;22.57;;
1975;SDS011;988;48.016;7.800;2023-06-01T10:20:21;23.53;;;21.93;;
1975;SDS011;988;48.016;7.800;2023-06-01T10:22:48;22.97;;;21.40;;
1975;SDS011;988;48.016;7.800;2023-06-01T10:25:15;24.30;;;22.90;;
1975;SDS011;988;48.016;7.800;2023-06-01T10:27:45;25.40;;;23.27;;
1975;SDS011;988;48.016;7.800;2023-06-01T10:30:22;24.03;;;22.53;;
1975;SDS011;988;48.016;7.800;2023-06-01T10:32:48;23.67;;;22.27;;
1975;SDS011;988;48.016;7.800;2023-06-01T10:40:39;24.70;;;23.20;;
1975;SDS011;988;48.016;7.800;2023-06-01T10:43:08;26.40;;;24.70;;
1975;SDS011;988;48.016;7.800;2023-06-01T10:48:56;25.83;;;24.10;;
1975;SDS011;988;48.016;7.800;2023-06-01T10:51:22;24.53;;;22.67;;
1975;SDS011;988;48.016;7.800;2023-06-01T10:53:52;24.10;;;22.50;;
1975;SDS011;988;48.016;7.800;2023-06-01T10:58:49;26.33;;;24.60;;
1975;SDS011;988;48.016;7.800;2023-06-01T11:01:42;25.67;;;24.07;;
1975;SDS011;988;48.016;7.800;2023-06-01T11:04:10;24.80;;;23.13;;
1975;SDS011;988;48.016;7.800;2023-06-01T11:06:39;24.73;;;23.23;;
1975;SDS011;988;48.016;7.800;2023-06-01T11:09:07;27.27;;;25.03;;
1975;SDS011;988;48.016;7.800;2023-06-01T11:14:17;25.43;;;23.80;;
1975;SDS011;988;48.016;7.800;2023-06-01T11:16:44;25.73;;;24.00;;
1975;SDS011;988;48.016;7.800;2023-06-01T11:19:10;25.27;;;23.67;;
1975;SDS011;988;48.016;7.800;2023-06-01T11:21:43;25.50;;;24.00;;
1975;SDS011;988;48.016;7.800;2023-06-01T11:24:10;25.00;;;23.37;;
1975;SDS011;988;48.016;7.800;2023-06-01T11:29:05;25.03;;;23.43;;
1975;SDS011;988;48.016;7.800;2023-06-01T11:31:59;24.63;;;23.30;;
1975;SDS011;988;48.016;7.800;2023-06-01T11:34:36;24.77;;;23.03;;
1975;SDS011;988;48.016;7.800;2023-06-01T11:37:16;24.67;;;23.10;;
1975;SDS011;988;48.016;7.800;2023-06-01T11:39:50;24.90;;;23.20;;
1975;SDS011;988;48.016;7.800;2023-06-01T11:42:17;24.30;;;22.70;;
1975;SDS011;988;48.016;7.800;2023-06-01T11:44:43;25.67;;;23.63;;
1975;SDS011;988;48.016;7.800;2023-06-01T11:47:12;24.53;;;23.20;;
1975;SDS011;988;48.016;7.800;2023-06-01T11:49:48;24.80;;;23.20;;
1975;SDS011;988;48.016;7.800;2023-06-01T11:52:14;24.97;;;23.50;;
1975;SDS011;988;48.016;7.800;2023-06-01T11:54:41;25.67;;;24.17;;
1975;SDS011;988;48.016;7.800;2023-06-01T11:57:07;25.30;;;24.00;;
1975;SDS011;988;48.016;7.800;2023-06-01T11:59:36;25.80;;;24.10;;
1975;SDS011;988;48.016;7.800;2023-06-01T12:02:04;26.17;;;24.47;;
1975;SDS011;988;48.016;7.800;2023-06-01T12:05:04;26.27;;;24.67;;
1975;SDS011;988;48.016;7.800;2023-06-01T12:07:47;26.60;;;24.97;;
1975;SDS011;988;48.016;7.800;2023-06-01T12:10:16;26.97;;;25.40;;
1975;SDS011;988;48.016;7.800;2023-06-01T12:12:43;26.50;;;24.80;;
1975;SDS011;988;48.016;7.800;2023-06-01T12:15:10;26.40;;;24.90;;
1975;SDS011;988;48.016;7.800;2023-06-01T12:17:46;25.37;;;23.40;;
1975;SDS011;988;48.016;7.800;2023-06-01T12:20:16;25.00;;;23.50;;
1975;SDS011;988;48.016;7.800;2023-06-01T12:22:51;25.20;;;23.70;;
1975;SDS011;988;48.016;7.800;2023-06-01T12:25:20;25.33;;;23.53;;
1975;SDS011;988;48.016;7.800;2023-06-01T12:28:08;25.33;;;23.57;;
1975;SDS011;988;48.016;7.800;2023-06-01T12:30:35;25.33;;;23.73;;
1975;SDS011;988;48.016;7.800;2023-06-01T12:33:01;27.33;;;25.63;;
1975;SDS011;988;48.016;7.800;2023-06-01T12:35:29;26.03;;;24.53;;
1975;SDS011;988;48.016;7.800;2023-06-01T12:38:05;24.83;;;23.40;;
1975;SDS011;988;48.016;7.800;2023-06-01T12:40:32;26.07;;;24.33;;
1975;SDS011;988;48.016;7.800;2023-06-01T12:42:58;26.03;;;24.63;;
1975;SDS011;988;48.016;7.800;2023-06-01T12:45:24;25.50;;;23.90;;
1975;SDS011;988;48.016;7.800;2023-06-01T12:47:50;26.77;;;25.17;;
1975;SDS011;988;48.016;7.800;2023-06-01T12:50:15;27.10;;;25.17;;
1975;SDS011;988;48.016;7.800;2023-06-01T12:52:43;25.00;;;23.50;;
1975;SDS011;988;48.016;7.800;2023-06-01T12:55:08;26.50;;;24.50;;
1975;SDS011;988;48.016;7.800;2023-06-01T12:57:35;25.50;;;23.67;;
1975;SDS011;988;48.016;7.800;2023-06-01T13:00:02;27.03;;;25.03;;
1975;SDS011;988;48.016;7.800;2023-06-01T13:02:29;26.07;;;24.50;;
1975;SDS011;988;48.016;7.800;2023-06-01T13:04:55;26.47;;;24.70;;
1975;SDS011;988;48.016;7.800;2023-06-01T13:07:22;26.43;;;24.87;;
1975;SDS011;988;48.016;7.800;2023-06-01T13:09:48;26.17;;;24.67;;
1975;SDS011;988;48.016;7.800;2023-06-01T13:12:14;25.50;;;24.10;;
1975;SDS011;988;48.016;7.800;2023-06-01T13:14:40;26.23;;;24.53;;
1975;SDS011;988;48.016;7.800;2023-06-01T13:17:05;27.00;;;25.20;;
1975;SDS011;988;48.016;7.800;2023-06-01T13:19:31;25.90;;;24.30;;
1975;SDS011;988;48.016;7.800;2023-06-01T13:21:57;25.90;;;24.40;;
1975;SDS011;988;48.016;7.800;2023-06-01T13:24:22;28.43;;;25.90;;
1975;SDS011;988;48.016;7.800;2023-06-01T13:26:48;25.53;;;24.00;;
1975;SDS011;988;48.016;7.800;2023-06-01T13:29:14;24.80;;;23.40;;
1975;SDS011;988;48.016;7.800;2023-06-01T13:31:40;26.27;;;24.57;;
1975;SDS011;988;48.016;7.800;2023-06-01T13:34:06;25.50;;;24.10;;
1975;SDS011;988;48.016;7.800;2023-06-01T13:36:32;25.73;;;24.20;;
1975;SDS011;988;48.016;7.800;2023-06-01T13:38:58;24.87;;;23.37;;
1975;SDS011;988;48.016;7.800;2023-06-01T13:41:23;24.40;;;22.80;;
1975;SDS011;988;48.016;7.800;2023-06-01T13:43:49;26.40;;;25.00;;
1975;SDS011;988;48.016;7.800;2023-06-01T13:46:15;26.30;;;24.53;;
1975;SDS011;988;48.016;7.800;2023-06-01T13:48:40;27.37;;;25.23;;
1975;SDS011;988;48.016;7.800;2023-06-01T13:51:06;26.60;;;25.00;;
1975;SDS011;988;48.016;7.800;2023-06-01T13:53:32;25.57;;;24.13;;
1975;SDS011;988;48.016;7.800;2023-06-01T13:55:58;25.20;;;23.10;;
1975;SDS011;988;48.016;7.800;2023-06-01T13:58:24;24.90;;;23.17;;
1975;SDS011;988;48.016;7.800;2023-06-01T14:00:50;25.10;;;23.60;;
1975;SDS011;988;48.016;7.800;2023-06-01T14:03:16;24.37;;;22.87;;
1975;SDS011;988;48.016;7.800;2023-06-01T14:05:41;23.87;;;22.47;;
1975;SDS011;988;48.016;7.800;2023-06-01T14:08:07;25.10;;;23.50;;
1975;SDS011;988;48.016;7.800;2023-06-01T14:10:33;26.43;;;24.87;;
1975;SDS011;988;48.016;7.800;2023-06-01T14:12:59;26.73;;;25.13;;
1975;SDS011;988;48.016;7.800;2023-06-01T14:15:25;27.93;;;26.20;;
1975;SDS011;988;48.016;7.800;2023-06-01T14:17:51;26.97;;;24.97;;
1975;SDS011;988;48.016;7.800;2023-06-01T14:20:17;27.30;;;25.00;;
1975;SDS011;988;48.016;7.800;2023-06-01T14:22:42;27.33;;;25.63;;
1975;SDS011;988;48.016;7.800;2023-06-01T14:25:08;26.00;;;24.40;;
1975;SDS011;988;48.016;7.800;2023-06-01T14:27:34;27.03;;;25.43;;
1975;SDS011;988;48.016;7.800;2023-06-01T14:30:03;25.60;;;24.17;;
1975;SDS011;988;48.016;7.800;2023-06-01T14:32:29;27.20;;;25.60;;
1975;SDS011;988;48.016;7.800;2023-06-01T14:34:55;27.80;;;26.10;;
1975;SDS011;988;48.016;7.800;2023-06-01T14:37:21;26.93;;;25.00;;
1975;SDS011;988;48.016;7.800;2023-06-01T14:39:47;27.63;;;25.80;;
1975;SDS011;988;48.016;7.800;2023-06-01T14:42:14;27.73;;;25.83;;
1975;SDS011;988;48.016;7.800;2023-06-01T14:44:40;26.83;;;25.07;;
1975;SDS011;988;48.016;7.800;2023-06-01T14:47:06;27.23;;;25.43;;
1975;SDS011;988;48.016;7.800;2023-06-01T14:49:32;27.23;;;25.53;;
1975;SDS011;988;48.016;7.800;2023-06-01T14:51:57;29.13;;;27.23;;
1975;SDS011;988;48.016;7.800;2023-06-01T14:54:23;27.67;;;26.00;;
1975;SDS011;988;48.016;7.800;2023-06-01T14:56:48;27.93;;;26.33;;
1975;SDS011;988;48.016;7.800;2023-06-01T14:59:14;28.70;;;26.67;;
1975;SDS011;988;48.016;7.800;2023-06-01T15:01:40;28.90;;;27.00;;
1975;SDS011;988;48.016;7.800;2023-06-01T15:04:06;26.60;;;24.90;;
1975;SDS011;988;48.016;7.800;2023-06-01T15:06:32;26.73;;;25.13;;
1975;SDS011;988;48.016;7.800;2023-06-01T15:08:57;27.57;;;25.87;;
1975;SDS011;988;48.016;7.800;2023-06-01T15:11:23;26.60;;;25.10;;
1975;SDS011;988;48.016;7.800;2023-06-01T15:13:49;25.57;;;24.17;;
1975;SDS011;988;48.016;7.800;2023-06-01T15:16:15;27.07;;;25.17;;
1975;SDS011;988;48.016;7.800;2023-06-01T15:18:40;28.00;;;26.27;;
1975;SDS011;988;48.016;7.800;2023-06-01T15:21:06;26.50;;;24.97;;
1975;SDS011;988;48.016;7.800;2023-06-01T15:23:32;26.00;;;24.60;;
1975;SDS011;988;48.016;7.800;2023-06-01T15:25:57;25.60;;;24.10;;
1975;SDS011;988;48.016;7.800;2023-06-01T15:28:23;31.57;;;29.20;;
1975;SDS011;988;48.016;7.800;2023-06-01T15:30:49;26.97;;;25.07;;
1975;SDS011;988;48.016;7.800;2023-06-01T15:33:18;25.07;;;23.60;;